Clarendon Hills, IL (60514)

7:49 AM CDT on August 21, 2014 (GMT -0500)
55th and Clarendon Hills Rd | Change Station
CLOSE
Current Station
Personal Weather Station
Location: Clarendon Hills, IL
Elevation: 749 ft
Nearby Weather Stations
Active Advisory: Areal Flood Advisory

Elev 749 ft 41.79 °N, 87.96 °W | Updated 10 seconds ago

Light Thunderstorms and Rain
Light Thunderstorm Rain Mist
70.4 °F
Feels Like 70.4 °F
N
0.0
Wind Variable Wind from SSW
Gusts 3.0 mph

Today
High -- | Low -- °F
--% Chance of Precip.
Yesterday
High -- | Low -- °F
Precip. -- in
6:06 AM 7:42 PM
Waning Crescent, 14% visible
Pressure 29.96 in
Visibility 5.0 miles
Clouds Few 700 ft
Few 4500 ft
Mostly Cloudy 11000 ft
Overcast 25000 ft
Dew Point 68 °F
Humidity 93%
Rainfall 1.59 in
Snow Depth Not available.
UV 0 out of 12
Pollen 5.80 out of 12
Ozone Good
PM2.5 Moderate
Flu Activity Not available.
SPECI KMDW 211220Z 24005KT 5SM -TSRA BR FEW007 FEW045CB BKN110 OVC250 23/22 A2996 RMK AO2 PRESRR OCNL LTGICCCCG VC S-SW TS VC S-SW MOV E P0002 T02280217

More Conditions Fewer Conditions

Pressure 29.96 in
Visibility 5.0 miles
Clouds Few 700 ft
Few 4500 ft
Mostly Cloudy 11000 ft
Overcast 25000 ft
Dew Point 68 °F
Humidity 93%
Rainfall 1.59 in
Snow Depth Not available.
UV 0 out of 12
Pollen 5.80 out of 12
Ozone Good
PM2.5 Moderate
Flu Activity Not available.
SPECI KMDW 211220Z 24005KT 5SM -TSRA BR FEW007 FEW045CB BKN110 OVC250 23/22 A2996 RMK AO2 PRESRR OCNL LTGICCCCG VC S-SW TS VC S-SW MOV E P0002 T02280217

More Conditions Fewer Conditions

10-Day Weather Forecast

Almanac

Astronomy

Aug. 21, 2014 Rise Set
Actual Time 6:06 AM CDT 7:42 PM CDT
Civil Twilight 5:36 AM CDT 8:12 PM CDT
Nautical Twilight 5:01 AM CDT 8:47 PM CDT
Astronomical Twilight 4:23 AM CDT 9:25 PM CDT
Moon 2:35 AM CDT 5:12 PM CDT
Length of Visible Light 14h 35m
Length of Day
13h 36m
Tomorrow will be 2m 35s shorter.
Waning Crescent, 14% of the Moon is Illuminated
Today
Waning Crescent
Aug 25
New
Sep 2
First Quarter
Sep 8
Full
Sep 15
Last Quarter

Today's Extremes

State Highs State Lows

Community

WunderPhotos

Upload Photos

1,745,895 photos uploaded!

WunderBlogs® & News

By Dr. Jeff Masters
Director of Meteorology, Weather Underground
By Kari Strenfel
Meteorologist, Weather Underground
By Christopher C. Burt
Weather Historian, Weather Underground
August 21, 2014
August 21, 2014
August 21, 2014

Nearby

Air Quality

  Air Quality AQ Index Pollutant
Yesterday Moderate
PM2.5
Yesterday Good
OZONE
Current Moderate
PM2.5
Current Good
OZONE
Thursday Moderate
OZONE
Thursday Moderate
PM2.5

Snow Depth

Station Depth Elevation
No new snow has been reported.

Earthquake Activity

City Distance Mag. Time & Date
No recent earthquake activity has been reported nearby.
Minimum magnitude displayed is 2.5.

Coastal Water Temperatures

Place Temperature
No Stations Reporting

Nearby Weather Stations